Time;durP1;ratioP1;P1;durP2;ratioP2;P2;SDS_P1;SDS_P2;PMS_P1;PMS_P2;Temp;Humidity;BMP_temperature;BMP_pressure;BME280_temperature;BME280_humidity;BME280_pressure;Samples;Min_cycle;Max_cycle;Signal;HPM_P1;HPM_P2
2022/12/27 00:01:25;;;;;;;11.68;2.35;;;;;;;;;;5074844;28;20052;-89
2022/12/27 00:03:53;;;;;;;18.17;2.65;;;;;;;;;;5074792;28;20064;-90
2022/12/27 00:06:20;;;;;;;11.20;2.25;;;;;;;;;;5075450;28;20074;-90
2022/12/27 00:08:47;;;;;;;14.40;3.00;;;;;;;;;;5057008;28;20084;-90
2022/12/27 00:11:15;;;;;;;13.18;2.53;;;;;;;;;;5074593;28;20076;-89
2022/12/27 00:13:41;;;;;;;14.75;2.70;;;;;;;;;;5074524;28;20051;-90
2022/12/27 00:16:09;;;;;;;14.30;2.90;;;;;;;;;;5074316;28;20127;-90
2022/12/27 00:18:36;;;;;;;12.43;2.75;;;;;;;;;;5057557;28;20052;-89
2022/12/27 00:21:03;;;;;;;19.15;2.40;;;;;;;;;;5074408;28;20121;-90
2022/12/27 00:23:34;;;;;;;10.68;2.63;;;;;;;;;;5074487;28;20132;-88
2022/12/27 00:26:04;;;;;;;12.38;2.40;;;;;;;;;;5057469;28;20087;-90
2022/12/27 00:28:31;;;;;;;9.45;2.38;;;;;;;;;;5039974;28;20374;-89
2022/12/27 00:30:58;;;;;;;15.32;2.70;;;;;;;;;;5074744;28;20044;-90
2022/12/27 00:33:24;;;;;;;14.18;2.75;;;;;;;;;;5074444;28;20043;-86
2022/12/27 00:35:50;;;;;;;13.90;2.53;;;;;;;;;;5074186;28;20105;-89
2022/12/27 00:38:16;;;;;;;18.80;3.10;;;;;;;;;;5074577;28;20080;-89
2022/12/27 00:40:43;;;;;;;12.80;2.17;;;;;;;;;;5074287;28;20483;-90
2022/12/27 00:43:09;;;;;;;12.32;2.28;;;;;;;;;;5056421;28;20048;-89
2022/12/27 00:45:35;;;;;;;15.38;2.28;;;;;;;;;;5057324;28;20093;-89
2022/12/27 00:48:01;;;;;;;16.98;2.20;;;;;;;;;;5056497;28;20052;-90
2022/12/27 00:50:27;;;;;;;15.43;2.50;;;;;;;;;;5055504;28;20056;-88
2022/12/27 00:52:53;;;;;;;16.63;2.97;;;;;;;;;;5056668;28;20473;-89
2022/12/27 00:55:20;;;;;;;15.88;2.50;;;;;;;;;;5073868;28;20092;-90
2022/12/27 00:57:46;;;;;;;12.57;3.13;;;;;;;;;;5056674;28;20090;-89
2022/12/27 01:00:12;;;;;;;11.55;2.05;;;;;;;;;;5074636;28;20435;-90
2022/12/27 01:02:39;;;;;;;14.75;2.50;;;;;;;;;;5056127;28;20045;-90
2022/12/27 01:05:06;;;;;;;13.90;2.20;;;;;;;;;;5056193;28;20084;-90
2022/12/27 01:07:32;;;;;;;16.05;3.00;;;;;;;;;;5074164;28;20040;-89
2022/12/27 01:09:58;;;;;;;14.68;2.17;;;;;;;;;;5055965;28;20087;-89
2022/12/27 01:12:24;;;;;;;18.10;2.65;;;;;;;;;;5074190;28;20076;-90
2022/12/27 01:14:50;;;;;;;13.90;2.55;;;;;;;;;;5073493;28;20141;-90
2022/12/27 01:17:17;;;;;;;14.15;2.25;;;;;;;;;;5073423;28;20068;-86
2022/12/27 01:19:43;;;;;;;11.82;2.08;;;;;;;;;;5073211;28;20505;-88
2022/12/27 01:22:09;;;;;;;11.30;2.38;;;;;;;;;;5074272;28;20045;-88
2022/12/27 01:24:35;;;;;;;15.73;1.77;;;;;;;;;;5073182;28;20493;-88
2022/12/27 01:27:01;;;;;;;12.82;1.88;;;;;;;;;;5074008;28;20388;-88
2022/12/27 01:29:27;;;;;;;13.23;2.15;;;;;;;;;;5055752;28;20044;-88
2022/12/27 01:31:53;;;;;;;15.95;2.38;;;;;;;;;;5055766;28;20084;-87
2022/12/27 01:34:19;;;;;;;13.07;2.40;;;;;;;;;;5073071;28;20210;-88
2022/12/27 01:36:46;;;;;;;15.93;2.25;;;;;;;;;;5055747;28;20485;-87
2022/12/27 01:39:12;;;;;;;14.02;2.92;;;;;;;;;;5073368;28;20157;-87
2022/12/27 01:44:42;;;;;;;16.33;2.30;;;;;;;;;;5074034;28;20476;-87
2022/12/27 01:47:14;;;;;;;11.38;2.67;;;;;;;;;;5073521;28;20074;-86
2022/12/27 01:50:01;;;;;;;16.27;2.30;;;;;;;;;;5073481;28;20053;-87
2022/12/27 01:52:53;;;;;;;15.65;3.10;;;;;;;;;;5005900;28;20056;-87
2022/12/27 01:55:22;;;;;;;18.90;2.78;;;;;;;;;;5035211;28;20063;-87
2022/12/27 01:57:50;;;;;;;14.02;2.40;;;;;;;;;;5072947;28;20040;-87
2022/12/27 02:00:16;;;;;;;13.07;1.98;;;;;;;;;;5073115;28;20045;-87
2022/12/27 02:02:43;;;;;;;13.13;3.08;;;;;;;;;;5058451;28;20469;-87
2022/12/27 02:05:11;;;;;;;19.63;2.78;;;;;;;;;;5059246;28;20542;-87
2022/12/27 02:07:45;;;;;;;15.15;2.40;;;;;;;;;;5043236;28;20084;-87
2022/12/27 02:10:11;;;;;;;12.57;2.15;;;;;;;;;;5058975;28;20083;-88
2022/12/27 02:12:37;;;;;;;12.32;2.67;;;;;;;;;;5059097;28;20091;-87
2022/12/27 02:15:04;;;;;;;23.80;2.92;;;;;;;;;;5058969;28;20487;-87
2022/12/27 02:17:31;;;;;;;16.75;2.58;;;;;;;;;;5076923;28;20358;-88
2022/12/27 02:20:00;;;;;;;16.40;2.58;;;;;;;;;;5077152;28;20131;-88
2022/12/27 02:24:01;;;;;;;13.75;2.28;;;;;;;;;;5076611;28;20110;-87
2022/12/27 02:25:48;;;;;;;11.38;1.75;;;;;;;;;;5076451;28;20056;-87
2022/12/27 02:28:32;;;;;;;18.70;2.13;;;;;;;;;;5055002;28;20083;-86
2022/12/27 02:31:03;;;;;;;16.73;2.03;;;;;;;;;;5058692;28;20052;-86
2022/12/27 02:33:30;;;;;;;17.98;2.85;;;;;;;;;;5041861;28;20052;-84
2022/12/27 02:35:59;;;;;;;21.02;3.13;;;;;;;;;;5076245;28;20127;-82
2022/12/27 02:38:30;;;;;;;16.15;2.30;;;;;;;;;;5058330;28;20044;-83
2022/12/27 02:55:22;;;;;;;15.45;3.20;;;;;;;;;;5037083;28;20049;-87
2022/12/27 02:57:56;;;;;;;21.67;2.83;;;;;;;;;;5035988;28;20133;-86
2022/12/27 03:03:34;;;;;;;18.80;2.92;;;;;;;;;;5035522;28;20509;-87
2022/12/27 03:08:57;;;;;;;16.45;2.85;;;;;;;;;;5035885;28;20093;-87
2022/12/27 03:17:48;;;;;;;17.92;3.67;;;;;;;;;;5035879;28;20169;-88
2022/12/27 03:25:48;;;;;;;22.15;2.80;;;;;;;;;;5035473;28;20058;-87
2022/12/27 03:40:03;;;;;;;14.93;2.85;;;;;;;;;;5035511;28;20139;-88
2022/12/27 03:45:19;;;;;;;18.23;3.13;;;;;;;;;;5035257;28;20049;-83
2022/12/27 03:47:53;;;;;;;25.85;2.95;;;;;;;;;;5035120;28;20489;-84
2022/12/27 03:50:28;;;;;;;17.75;2.78;;;;;;;;;;5039734;28;20053;-84
2022/12/27 03:53:02;;;;;;;21.25;4.45;;;;;;;;;;5054929;28;20064;-85
2022/12/27 03:55:28;;;;;;;20.35;3.10;;;;;;;;;;5054931;28;20479;-84
2022/12/27 03:57:54;;;;;;;17.13;2.40;;;;;;;;;;5055521;28;20044;-85
2022/12/27 04:00:21;;;;;;;14.80;2.83;;;;;;;;;;5054139;28;20084;-86
2022/12/27 04:02:47;;;;;;;16.02;2.63;;;;;;;;;;5055239;28;20053;-85
2022/12/27 04:05:13;;;;;;;14.98;2.85;;;;;;;;;;5054686;28;20074;-86
2022/12/27 04:35:08;;;;;;;16.95;3.60;;;;;;;;;;5054757;28;20431;-88
2022/12/27 04:37:34;;;;;;;18.48;2.90;;;;;;;;;;5054601;28;20048;-89
2022/12/27 04:56:30;;;;;;;16.63;2.85;;;;;;;;;;5073682;28;20053;-86
2022/12/27 05:04:27;;;;;;;19.73;3.53;;;;;;;;;;5073745;28;20056;-87
2022/12/27 05:06:53;;;;;;;14.00;2.45;;;;;;;;;;5073616;28;20051;-87
2022/12/27 05:14:49;;;;;;;10.10;2.60;;;;;;;;;;5074158;28;20439;-87
2022/12/27 05:17:15;;;;;;;20.45;2.53;;;;;;;;;;5039132;28;20127;-88
2022/12/27 05:19:41;;;;;;;14.60;2.58;;;;;;;;;;5073619;28;20131;-88
2022/12/27 05:27:36;;;;;;;17.15;2.90;;;;;;;;;;5074061;28;20382;-88
2022/12/27 05:30:03;;;;;;;19.33;2.78;;;;;;;;;;5073444;28;20044;-88
2022/12/27 05:32:29;;;;;;;19.50;2.70;;;;;;;;;;5073448;28;20076;-89
2022/12/27 05:34:55;;;;;;;19.05;3.03;;;;;;;;;;5073477;28;20135;-89
2022/12/27 05:37:21;;;;;;;15.18;3.00;;;;;;;;;;5057921;28;20064;-89
2022/12/27 05:39:47;;;;;;;14.65;2.15;;;;;;;;;;5077491;28;20098;-88
2022/12/27 05:42:14;;;;;;;25.00;3.03;;;;;;;;;;5060146;28;20087;-88
2022/12/27 05:44:40;;;;;;;16.17;3.25;;;;;;;;;;5077425;28;20510;-88
2022/12/27 05:47:06;;;;;;;14.23;2.50;;;;;;;;;;5060289;28;20143;-88
2022/12/27 05:49:32;;;;;;;12.65;2.42;;;;;;;;;;5077301;28;20128;-89
2022/12/27 05:51:58;;;;;;;16.48;3.55;;;;;;;;;;5078166;28;20370;-89
2022/12/27 05:54:24;;;;;;;16.55;2.72;;;;;;;;;;5059551;28;20068;-89
2022/12/27 05:56:50;;;;;;;18.17;3.75;;;;;;;;;;5077001;28;20048;-89
2022/12/27 05:59:17;;;;;;;19.13;2.80;;;;;;;;;;5059639;28;20162;-88
2022/12/27 06:01:43;;;;;;;14.05;2.55;;;;;;;;;;5077596;28;20056;-88
2022/12/27 06:04:09;;;;;;;16.08;2.53;;;;;;;;;;5059218;28;20044;-88
2022/12/27 06:06:35;;;;;;;15.15;2.95;;;;;;;;;;5076929;28;20048;-89
2022/12/27 06:09:02;;;;;;;17.55;2.85;;;;;;;;;;5076943;28;20095;-89
2022/12/27 06:11:28;;;;;;;15.73;2.63;;;;;;;;;;5059283;28;20532;-88
2022/12/27 06:13:54;;;;;;;24.30;3.53;;;;;;;;;;5077379;28;20131;-88
2022/12/27 06:16:21;;;;;;;19.00;2.60;;;;;;;;;;5076705;28;20049;-89
2022/12/27 06:18:47;;;;;;;20.63;3.33;;;;;;;;;;5058649;28;20146;-88
2022/12/27 06:21:16;;;;;;;12.68;2.35;;;;;;;;;;5076635;28;20095;-88
2022/12/27 06:23:46;;;;;;;14.68;2.33;;;;;;;;;;5059339;28;20040;-89
2022/12/27 06:26:14;;;;;;;16.02;3.05;;;;;;;;;;5059283;28;20048;-89
2022/12/27 06:28:40;;;;;;;16.80;2.38;;;;;;;;;;5076843;28;20429;-89
2022/12/27 06:31:06;;;;;;;15.73;2.47;;;;;;;;;;5059112;28;20056;-88
2022/12/27 06:33:32;;;;;;;16.58;2.55;;;;;;;;;;5058984;28;20118;-89
2022/12/27 06:35:59;;;;;;;8.88;1.90;;;;;;;;;;5076710;28;20075;-89
2022/12/27 06:38:25;;;;;;;19.30;2.95;;;;;;;;;;5078208;28;20044;-89
2022/12/27 06:40:51;;;;;;;14.73;2.58;;;;;;;;;;5076838;28;20095;-84
2022/12/27 06:43:17;;;;;;;13.68;2.60;;;;;;;;;;5076201;28;20049;-86
2022/12/27 06:45:43;;;;;;;19.73;2.17;;;;;;;;;;5041990;28;20122;-87
2022/12/27 06:48:09;;;;;;;13.13;2.08;;;;;;;;;;5057316;28;20109;-86
2022/12/27 06:50:37;;;;;;;14.93;2.17;;;;;;;;;;5076246;28;20385;-87
2022/12/27 06:53:03;;;;;;;16.05;2.08;;;;;;;;;;5076131;28;20051;-87
2022/12/27 06:55:29;;;;;;;14.88;3.05;;;;;;;;;;5058344;28;20480;-87
2022/12/27 06:57:55;;;;;;;15.50;2.75;;;;;;;;;;5075830;28;20049;-87
2022/12/27 07:00:21;;;;;;;24.27;3.28;;;;;;;;;;5075935;28;20048;-87
2022/12/27 07:02:47;;;;;;;23.80;3.78;;;;;;;;;;5058283;28;20048;-87
2022/12/27 07:05:14;;;;;;;25.20;7.88;;;;;;;;;;5075569;28;20501;-87
2022/12/27 07:07:40;;;;;;;22.52;4.40;;;;;;;;;;5075865;28;20080;-88
2022/12/27 07:10:06;;;;;;;16.95;3.45;;;;;;;;;;5075862;28;20048;-88
2022/12/27 07:12:32;;;;;;;20.27;3.13;;;;;;;;;;5075768;28;20041;-88
2022/12/27 07:14:58;;;;;;;20.25;4.07;;;;;;;;;;5076227;28;20048;-88
2022/12/27 07:17:25;;;;;;;16.83;3.70;;;;;;;;;;5058362;28;20045;-87
2022/12/27 07:19:51;;;;;;;21.42;3.50;;;;;;;;;;5075551;28;20051;-87
2022/12/27 07:22:17;;;;;;;22.73;4.18;;;;;;;;;;5058002;28;20089;-88
2022/12/27 07:24:43;;;;;;;21.70;3.92;;;;;;;;;;5076043;28;20044;-86
2022/12/27 07:27:09;;;;;;;23.23;8.65;;;;;;;;;;5075495;28;20040;-88
2022/12/27 07:29:35;;;;;;;23.95;4.82;;;;;;;;;;5058472;28;20194;-88
2022/12/27 07:32:01;;;;;;;19.52;3.20;;;;;;;;;;5075676;28;20041;-87
2022/12/27 07:34:27;;;;;;;22.73;3.42;;;;;;;;;;5075629;28;20091;-87
2022/12/27 07:36:53;;;;;;;18.30;3.13;;;;;;;;;;5075321;28;20123;-87
2022/12/27 07:39:19;;;;;;;11.77;2.38;;;;;;;;;;5057556;28;20088;-86
2022/12/27 07:41:46;;;;;;;20.55;3.60;;;;;;;;;;5075565;28;20052;-87
2022/12/27 07:44:12;;;;;;;18.80;3.10;;;;;;;;;;5075166;28;20473;-87
2022/12/27 07:46:38;;;;;;;13.40;3.20;;;;;;;;;;5057561;28;20132;-87
2022/12/27 07:49:06;;;;;;;21.58;3.13;;;;;;;;;;5058039;28;20373;-87
2022/12/27 07:51:32;;;;;;;17.05;2.70;;;;;;;;;;5040355;28;20485;-87
2022/12/27 07:53:58;;;;;;;20.20;4.00;;;;;;;;;;5075073;28;20051;-88
2022/12/27 07:56:25;;;;;;;21.23;3.50;;;;;;;;;;5057236;28;20048;-87
2022/12/27 07:58:52;;;;;;;13.43;2.90;;;;;;;;;;5057121;28;20066;-88
2022/12/27 08:01:19;;;;;;;16.30;2.80;;;;;;;;;;5074604;28;20048;-87
2022/12/27 08:03:45;;;;;;;21.13;3.08;;;;;;;;;;5075512;28;20045;-88
2022/12/27 08:06:23;;;;;;;20.05;3.08;;;;;;;;;;5074748;28;20084;-87
2022/12/27 08:08:49;;;;;;;16.05;2.80;;;;;;;;;;5074669;28;20122;-87
2022/12/27 08:11:16;;;;;;;17.85;4.38;;;;;;;;;;5075251;28;20055;-87
2022/12/27 08:13:42;;;;;;;18.30;3.20;;;;;;;;;;5057236;28;20096;-87
2022/12/27 08:16:10;;;;;;;21.35;3.47;;;;;;;;;;5074572;28;20401;-88
2022/12/27 08:18:36;;;;;;;16.52;3.42;;;;;;;;;;5057469;28;20206;-87
2022/12/27 08:21:02;;;;;;;19.58;3.33;;;;;;;;;;5056917;28;20493;-87
2022/12/27 08:23:28;;;;;;;21.88;3.17;;;;;;;;;;5074821;28;20135;-87
2022/12/27 08:25:54;;;;;;;19.35;3.25;;;;;;;;;;5057478;28;20048;-88
2022/12/27 08:28:20;;;;;;;14.95;3.20;;;;;;;;;;5074185;28;20036;-87
2022/12/27 08:30:47;;;;;;;13.70;3.10;;;;;;;;;;5074188;28;20396;-87
2022/12/27 08:33:14;;;;;;;16.30;3.13;;;;;;;;;;5074157;28;20067;-88
2022/12/27 08:35:44;;;;;;;15.82;2.60;;;;;;;;;;5073987;28;20084;-87
2022/12/27 08:38:10;;;;;;;24.95;3.53;;;;;;;;;;5073965;28;20052;-88
2022/12/27 08:40:40;;;;;;;18.42;3.13;;;;;;;;;;5073586;28;20488;-87
2022/12/27 08:43:07;;;;;;;15.00;2.80;;;;;;;;;;5073909;28;20439;-87
2022/12/27 08:45:34;;;;;;;21.95;3.22;;;;;;;;;;5073836;28;20040;-87
2022/12/27 08:48:00;;;;;;;24.27;3.30;;;;;;;;;;5073873;28;20036;-87
2022/12/27 08:50:27;;;;;;;20.77;4.40;;;;;;;;;;5073797;28;20135;-87
2022/12/27 08:52:56;;;;;;;16.50;3.15;;;;;;;;;;5056173;28;20495;-87
2022/12/27 08:55:22;;;;;;;19.02;3.25;;;;;;;;;;5073806;28;20079;-83
2022/12/27 08:57:48;;;;;;;11.50;2.65;;;;;;;;;;5055841;28;20143;-88
2022/12/27 09:00:14;;;;;;;20.05;3.55;;;;;;;;;;5073825;28;20131;-87
2022/12/27 09:02:40;;;;;;;18.90;3.25;;;;;;;;;;5056885;28;20052;-88
2022/12/27 09:05:07;;;;;;;12.13;2.90;;;;;;;;;;5073707;28;20463;-88
2022/12/27 09:07:33;;;;;;;18.23;2.88;;;;;;;;;;5055989;28;20083;-88
2022/12/27 09:09:59;;;;;;;26.35;3.90;;;;;;;;;;5073624;28;20091;-88
2022/12/27 09:12:25;;;;;;;19.92;3.38;;;;;;;;;;5072972;28;20076;-87
2022/12/27 09:14:51;;;;;;;17.83;4.03;;;;;;;;;;5073678;28;20522;-89
2022/12/27 09:17:17;;;;;;;19.42;3.80;;;;;;;;;;5039323;28;20128;-89
2022/12/27 09:19:43;;;;;;;17.67;2.90;;;;;;;;;;5039586;28;20149;-88
2022/12/27 09:22:09;;;;;;;19.23;3.90;;;;;;;;;;5039334;28;20052;-88
2022/12/27 09:24:36;;;;;;;16.95;2.95;;;;;;;;;;5073492;28;20147;-88
2022/12/27 09:27:02;;;;;;;12.18;3.13;;;;;;;;;;5056624;28;20048;-88
2022/12/27 09:29:28;;;;;;;18.08;3.25;;;;;;;;;;5055485;28;20097;-87
2022/12/27 09:31:54;;;;;;;16.63;2.88;;;;;;;;;;5073897;28;20131;-87
2022/12/27 09:34:20;;;;;;;18.30;3.65;;;;;;;;;;5073297;28;20145;-87
2022/12/27 09:36:46;;;;;;;15.02;2.92;;;;;;;;;;5039017;28;20119;-88
2022/12/27 09:39:12;;;;;;;15.63;2.90;;;;;;;;;;5056184;28;20127;-83
2022/12/27 09:41:41;;;;;;;16.65;3.45;;;;;;;;;;5074245;28;20048;-82
2022/12/27 09:44:12;;;;;;;14.90;3.38;;;;;;;;;;5073865;28;20040;-83
2022/12/27 09:46:38;;;;;;;18.17;3.92;;;;;;;;;;5041139;28;20056;-84
2022/12/27 09:49:05;;;;;;;17.77;3.75;;;;;;;;;;5055329;28;20489;-85
2022/12/27 09:51:50;;;;;;;19.00;3.00;;;;;;;;;;5073844;28;20105;-83
2022/12/27 09:54:26;;;;;;;16.08;3.10;;;;;;;;;;5073418;28;20401;-82
2022/12/27 09:56:52;;;;;;;15.32;2.72;;;;;;;;;;5073314;28;20469;-79
2022/12/27 09:59:31;;;;;;;13.32;2.83;;;;;;;;;;5073947;28;20048;-82
2022/12/27 10:01:58;;;;;;;24.05;2.80;;;;;;;;;;5073156;28;20048;-82
2022/12/27 10:04:25;;;;;;;13.10;3.65;;;;;;;;;;5073148;28;20083;-85
2022/12/27 10:06:52;;;;;;;15.13;3.13;;;;;;;;;;5073854;28;20449;-82
2022/12/27 10:09:33;;;;;;;17.83;3.53;;;;;;;;;;5072738;28;20496;-83
2022/12/27 10:12:02;;;;;;;12.98;2.78;;;;;;;;;;5072983;28;20048;-86
2022/12/27 10:14:28;;;;;;;17.52;3.78;;;;;;;;;;5055113;28;20044;-86
2022/12/27 10:16:58;;;;;;;19.38;4.07;;;;;;;;;;5073091;28;20425;-83
2022/12/27 10:19:27;;;;;;;14.90;4.15;;;;;;;;;;5072996;28;20502;-82
2022/12/27 10:21:56;;;;;;;17.40;3.35;;;;;;;;;;5055998;28;20087;-84
2022/12/27 10:24:25;;;;;;;20.83;4.35;;;;;;;;;;5076594;28;20088;-83
2022/12/27 10:26:54;;;;;;;17.85;3.35;;;;;;;;;;5076566;28;20045;-86
2022/12/27 10:29:22;;;;;;;16.05;3.20;;;;;;;;;;5076483;28;20052;-85
2022/12/27 10:31:48;;;;;;;15.10;2.90;;;;;;;;;;5058863;28;20477;-87
2022/12/27 10:34:15;;;;;;;12.48;3.25;;;;;;;;;;5076486;28;20127;-86
2022/12/27 10:36:42;;;;;;;18.20;2.88;;;;;;;;;;5076298;28;20049;-82
2022/12/27 10:39:18;;;;;;;17.27;2.97;;;;;;;;;;5076380;28;20056;-77
2022/12/27 10:41:59;;;;;;;15.93;3.30;;;;;;;;;;5076551;28;20052;-78
2022/12/27 10:44:25;;;;;;;11.93;2.80;;;;;;;;;;5058884;28;20091;-83
2022/12/27 10:46:53;;;;;;;17.42;3.92;;;;;;;;;;5076742;28;20132;-82
2022/12/27 10:49:23;;;;;;;14.10;3.50;;;;;;;;;;5076176;28;20048;-82
2022/12/27 10:51:53;;;;;;;14.82;3.30;;;;;;;;;;5075943;28;20412;-82
2022/12/27 10:54:22;;;;;;;13.50;3.67;;;;;;;;;;5076432;28;20056;-82
2022/12/27 10:56:48;;;;;;;18.92;3.53;;;;;;;;;;5059010;28;20045;-82
2022/12/27 10:59:32;;;;;;;17.65;3.03;;;;;;;;;;5075988;28;20568;-82
2022/12/27 11:02:01;;;;;;;15.20;2.95;;;;;;;;;;5076063;28;20371;-82
2022/12/27 11:04:28;;;;;;;18.50;4.22;;;;;;;;;;5075803;28;20131;-82
2022/12/27 11:07:01;;;;;;;21.80;3.28;;;;;;;;;;5075808;28;20040;-82
2022/12/27 11:09:33;;;;;;;17.10;3.00;;;;;;;;;;5075802;28;20107;-82
2022/12/27 11:12:12;;;;;;;15.90;3.22;;;;;;;;;;5076218;28;20051;-82
2022/12/27 11:14:39;;;;;;;20.52;3.20;;;;;;;;;;5075660;28;20480;-82
2022/12/27 11:17:13;;;;;;;21.05;3.47;;;;;;;;;;5076085;28;20098;-82
2022/12/27 11:19:44;;;;;;;10.00;2.70;;;;;;;;;;5075555;28;20052;-82
2022/12/27 11:22:10;;;;;;;16.75;2.85;;;;;;;;;;5058739;28;20131;-82
2022/12/27 11:24:37;;;;;;;16.90;2.90;;;;;;;;;;5075527;28;20130;-82
2022/12/27 11:27:03;;;;;;;17.50;2.67;;;;;;;;;;5075463;28;20049;-82
2022/12/27 11:29:30;;;;;;;14.75;2.88;;;;;;;;;;5075421;28;20081;-82
2022/12/27 11:31:56;;;;;;;25.48;6.18;;;;;;;;;;5075290;28;20052;-82
2022/12/27 11:34:28;;;;;;;17.10;3.50;;;;;;;;;;5075255;28;20053;-82
2022/12/27 11:36:55;;;;;;;18.70;3.85;;;;;;;;;;5075488;28;20037;-82
2022/12/27 11:39:39;;;;;;;10.27;3.17;;;;;;;;;;5075235;28;20087;-82
2022/12/27 11:42:26;;;;;;;14.90;2.75;;;;;;;;;;5075167;28;20404;-80
2022/12/27 11:44:58;;;;;;;11.15;2.55;;;;;;;;;;5040426;28;20096;-82
2022/12/27 11:47:33;;;;;;;15.32;2.78;;;;;;;;;;5075071;28;20048;-82
2022/12/27 11:50:14;;;;;;;13.35;2.40;;;;;;;;;;5074701;28;20044;-82
2022/12/27 11:52:45;;;;;;;12.85;2.67;;;;;;;;;;5057110;28;20054;-87
2022/12/27 11:55:31;;;;;;;14.75;2.92;;;;;;;;;;5075067;28;20123;-89
2022/12/27 11:57:59;;;;;;;18.43;3.00;;;;;;;;;;5074822;28;20037;-87
2022/12/27 12:00:30;;;;;;;16.90;3.08;;;;;;;;;;5074856;28;20048;-88
2022/12/27 12:02:56;;;;;;;18.95;2.92;;;;;;;;;;5075110;28;20045;-88
2022/12/27 12:05:40;;;;;;;14.25;2.85;;;;;;;;;;5075250;28;20052;-89
2022/12/27 12:08:22;;;;;;;15.45;3.10;;;;;;;;;;5057350;28;20053;-88
2022/12/27 12:11:08;;;;;;;17.73;3.90;;;;;;;;;;5075128;28;20444;-87
2022/12/27 12:13:53;;;;;;;18.52;3.42;;;;;;;;;;5074855;28;20091;-85
2022/12/27 12:16:39;;;;;;;16.35;3.17;;;;;;;;;;5074476;28;20049;-81
2022/12/27 12:19:24;;;;;;;13.15;3.08;;;;;;;;;;5056813;28;20064;-86
2022/12/27 12:22:09;;;;;;;18.45;3.08;;;;;;;;;;5056754;28;20429;-81
2022/12/27 12:24:41;;;;;;;11.00;2.67;;;;;;;;;;5074855;28;20048;-80
2022/12/27 12:27:10;;;;;;;15.38;2.88;;;;;;;;;;5075128;28;20106;-81
2022/12/27 12:29:53;;;;;;;13.80;2.85;;;;;;;;;;5074747;28;20496;-81
2022/12/27 12:32:24;;;;;;;14.20;3.10;;;;;;;;;;5073951;28;20086;-83
2022/12/27 12:34:56;;;;;;;15.88;2.88;;;;;;;;;;5074044;28;20136;-79
2022/12/27 12:37:25;;;;;;;15.15;2.40;;;;;;;;;;5074801;28;20072;-80
2022/12/27 12:40:10;;;;;;;12.10;3.05;;;;;;;;;;5074054;28;20059;-80
2022/12/27 12:43:01;;;;;;;17.83;3.28;;;;;;;;;;5074027;28;20138;-81
2022/12/27 12:45:27;;;;;;;12.30;2.67;;;;;;;;;;5073871;28;20111;-80
2022/12/27 12:48:12;;;;;;;10.20;2.58;;;;;;;;;;5055365;28;20124;-79
2022/12/27 12:50:51;;;;;;;11.93;2.70;;;;;;;;;;5039334;28;20099;-79
2022/12/27 12:53:20;;;;;;;10.70;3.07;;;;;;;;;;5040410;28;20049;-79
2022/12/27 12:56:05;;;;;;;13.95;3.33;;;;;;;;;;5073742;28;20293;-80
2022/12/27 12:58:45;;;;;;;16.98;2.70;;;;;;;;;;5073608;28;20492;-81
2022/12/27 13:01:30;;;;;;;12.15;2.67;;;;;;;;;;5074472;28;20074;-79
2022/12/27 13:04:08;;;;;;;16.92;3.42;;;;;;;;;;5074150;28;20060;-79
2022/12/27 13:06:37;;;;;;;16.80;3.65;;;;;;;;;;5073759;28;20163;-80
2022/12/27 13:09:23;;;;;;;17.92;4.05;;;;;;;;;;5073554;28;20507;-81
2022/12/27 13:11:58;;;;;;;17.80;3.93;;;;;;;;;;5055875;28;20501;-81
2022/12/27 13:14:31;;;;;;;16.98;3.70;;;;;;;;;;5073524;28;20710;-82
2022/12/27 13:17:00;;;;;;;34.00;8.45;;;;;;;;;;5073255;28;20041;-85
2022/12/27 13:19:43;;;;;;;13.35;3.28;;;;;;;;;;5073227;28;20052;-84
2022/12/27 13:22:12;;;;;;;14.05;3.80;;;;;;;;;;5073355;28;20044;-85
2022/12/27 13:24:41;;;;;;;14.85;3.80;;;;;;;;;;5073398;28;20463;-84
2022/12/27 13:27:26;;;;;;;14.80;3.07;;;;;;;;;;5073191;28;20091;-83
2022/12/27 13:30:00;;;;;;;16.27;3.53;;;;;;;;;;5073186;28;20286;-85
2022/12/27 13:32:35;;;;;;;19.35;4.57;;;;;;;;;;5073521;28;20044;-87
2022/12/27 13:35:01;;;;;;;;;;;;;;;;;;5055934;28;20102;-86
2022/12/27 13:37:33;;;;;;;17.00;4.10;;;;;;;;;;5072672;28;19920;-86
2022/12/27 13:40:15;;;;;;;12.88;4.50;;;;;;;;;;5073493;28;20049;-83
2022/12/27 13:42:47;;;;;;;16.15;3.88;;;;;;;;;;5072768;28;20537;-84
2022/12/27 13:45:13;;;;;;;18.63;4.03;;;;;;;;;;5073593;28;20040;-84
2022/12/27 13:47:42;;;;;;;19.27;4.90;;;;;;;;;;5055173;28;20119;-85
2022/12/27 13:50:21;;;;;;;19.00;4.43;;;;;;;;;;5073003;28;20334;-86
2022/12/27 13:52:56;;;;;;;17.93;5.17;;;;;;;;;;5055600;28;20341;-84
2022/12/27 13:55:22;;;;;;;;;;;;;;;;;;5073290;28;20357;-84
2022/12/27 13:58:21;;;;;;;14.35;4.07;;;;;;;;;;5073179;28;19972;-83
2022/12/27 14:01:05;;;;;;;17.50;4.55;;;;;;;;;;5022144;28;20404;-84
2022/12/27 14:03:50;;;;;;;14.45;4.65;;;;;;;;;;5042779;28;20049;-86
2022/12/27 14:06:26;;;;;;;19.80;5.22;;;;;;;;;;5076803;28;20080;-84
2022/12/27 14:08:52;;;;;;;19.75;5.22;;;;;;;;;;5076820;28;20037;-81
2022/12/27 14:11:31;;;;;;;11.10;4.28;;;;;;;;;;5076590;28;20123;-82
2022/12/27 14:13:58;;;;;;;14.07;4.23;;;;;;;;;;5059100;28;20174;-84
2022/12/27 14:16:36;;;;;;;20.17;5.20;;;;;;;;;;5076667;28;20290;-82
2022/12/27 14:19:11;;;;;;;21.80;4.83;;;;;;;;;;5076496;28;20366;-83
2022/12/27 14:21:56;;;;;;;19.58;6.13;;;;;;;;;;5076546;28;20355;-80
2022/12/27 14:24:22;;;;;;;20.95;7.38;;;;;;;;;;5042181;28;20121;-87
2022/12/27 14:27:12;;;;;;;19.65;5.13;;;;;;;;;;5076400;28;20400;-84
2022/12/27 14:29:38;;;;;;;17.00;5.17;;;;;;;;;;5013095;28;20522;-85
2022/12/27 14:32:07;;;;;;;17.02;5.43;;;;;;;;;;5076322;28;20286;-86
2022/12/27 14:34:51;;;;;;;27.07;6.07;;;;;;;;;;5058665;28;20479;-89
2022/12/27 14:37:24;;;;;;;17.67;5.47;;;;;;;;;;5076782;28;20299;-88
2022/12/27 14:40:19;;;;;;;14.93;5.57;;;;;;;;;;5076614;28;20286;-87
2022/12/27 14:43:04;;;;;;;20.40;5.57;;;;;;;;;;5055259;28;20099;-90
2022/12/27 14:45:39;;;;;;;20.98;6.00;;;;;;;;;;5076090;28;20052;-85
2022/12/27 14:48:17;;;;;;;15.40;5.60;;;;;;;;;;5057827;28;20135;-86
2022/12/27 14:50:52;;;;;;;14.48;5.88;;;;;;;;;;5075943;28;20053;-88
2022/12/27 14:53:41;;;;;;;19.13;7.13;;;;;;;;;;5076146;28;20096;-83
2022/12/27 14:56:26;;;;;;;22.57;8.70;;;;;;;;;;5045008;28;20139;-79
2022/12/27 14:59:11;;;;;;;20.83;7.25;;;;;;;;;;5075460;28;20386;-79
2022/12/27 15:01:43;;;;;;;22.57;9.30;;;;;;;;;;5058028;28;20049;-79
2022/12/27 15:04:28;;;;;;;25.60;8.93;;;;;;;;;;5075578;28;20287;-84
2022/12/27 15:07:13;;;;;;;15.48;6.30;;;;;;;;;;5076073;28;20087;-89
2022/12/27 15:09:48;;;;;;;19.92;7.70;;;;;;;;;;5074665;28;20049;-86
2022/12/27 15:12:29;;;;;;;20.10;7.82;;;;;;;;;;5058611;28;20048;-87
2022/12/27 15:15:02;;;;;;;21.43;8.10;;;;;;;;;;5058055;28;20055;-88
2022/12/27 15:17:31;;;;;;;14.52;8.43;;;;;;;;;;5076246;28;20291;-87
2022/12/27 15:19:57;;;;;;;26.97;9.63;;;;;;;;;;5057755;28;20048;-84
2022/12/27 15:22:23;;;;;;;22.08;8.95;;;;;;;;;;5075664;28;20352;-86
2022/12/27 15:24:57;;;;;;;24.00;10.02;;;;;;;;;;5075240;28;20051;-81
2022/12/27 15:27:24;;;;;;;31.58;15.38;;;;;;;;;;5075469;28;20041;-89
2022/12/27 15:29:50;;;;;;;41.33;21.08;;;;;;;;;;5075360;28;20087;-88
2022/12/27 15:32:54;;;;;;;22.37;11.17;;;;;;;;;;5075323;28;20384;-82
2022/12/27 15:35:29;;;;;;;31.67;14.00;;;;;;;;;;4973699;28;20376;-85
2022/12/27 15:38:03;;;;;;;34.78;18.23;;;;;;;;;;4973826;28;20130;-84
2022/12/27 15:40:42;;;;;;;26.17;15.60;;;;;;;;;;5016241;28;20056;-86
2022/12/27 15:43:17;;;;;;;22.17;12.35;;;;;;;;;;5074763;28;20040;-80
2022/12/27 15:46:02;;;;;;;19.80;11.95;;;;;;;;;;5074692;28;20052;-87
2022/12/27 15:48:46;;;;;;;29.80;16.10;;;;;;;;;;5074747;28;20041;-87
2022/12/27 15:51:31;;;;;;;33.60;18.70;;;;;;;;;;5074424;28;20493;-78
2022/12/27 15:54:16;;;;;;;41.38;22.92;;;;;;;;;;5074444;28;20045;-79
2022/12/27 15:56:48;;;;;;;28.13;14.07;;;;;;;;;;5075035;28;20052;-80
2022/12/27 15:59:32;;;;;;;23.95;13.90;;;;;;;;;;5056662;28;20453;-80
2022/12/27 16:02:16;;;;;;;28.55;17.02;;;;;;;;;;5074262;28;20048;-81
2022/12/27 16:05:04;;;;;;;28.88;12.63;;;;;;;;;;5074405;28;20120;-80
2022/12/27 16:07:36;;;;;;;21.42;12.77;;;;;;;;;;5074166;28;20461;-80
2022/12/27 16:10:29;;;;;;;26.42;13.10;;;;;;;;;;5074150;28;20044;-88
2022/12/27 16:12:58;;;;;;;26.33;14.23;;;;;;;;;;5036459;28;20056;-88
2022/12/27 16:15:41;;;;;;;23.73;14.18;;;;;;;;;;5074350;28;20044;-88
2022/12/27 16:18:30;;;;;;;30.20;14.85;;;;;;;;;;5080128;28;20044;-88
2022/12/27 16:20:59;;;;;;;26.00;13.23;;;;;;;;;;5058745;28;20052;-86
2022/12/27 16:23:26;;;;;;;30.83;13.55;;;;;;;;;;5074022;28;20131;-91
2022/12/27 16:26:02;;;;;;;29.73;16.88;;;;;;;;;;5074132;28;20519;-80
2022/12/27 16:28:29;;;;;;;26.45;14.95;;;;;;;;;;5074074;28;20048;-84
2022/12/27 16:30:56;;;;;;;28.38;14.02;;;;;;;;;;5073908;28;20044;-86
2022/12/27 16:33:25;;;;;;;31.60;14.95;;;;;;;;;;5073959;28;20121;-85
2022/12/27 16:36:06;;;;;;;25.90;14.95;;;;;;;;;;5073707;28;20041;-86
2022/12/27 16:38:33;;;;;;;21.70;13.05;;;;;;;;;;5073834;28;20044;-83
2022/12/27 16:41:19;;;;;;;23.88;13.75;;;;;;;;;;5074337;28;20049;-81